createdAt,value
2018-09-29T00:01:29.958Z,13.31
2018-09-29T00:03:57.150Z,13.27
2018-09-29T00:06:24.463Z,13.15
2018-09-29T00:08:51.653Z,13.13
2018-09-29T00:11:18.843Z,13.14
2018-09-29T00:13:45.974Z,13.11
2018-09-29T00:16:13.181Z,13.06
2018-09-29T00:18:40.334Z,13.00
2018-09-29T00:21:07.569Z,13.01
2018-09-29T00:23:34.817Z,13.06
2018-09-29T00:26:01.990Z,13.06
2018-09-29T00:28:29.175Z,12.97
2018-09-29T00:30:56.362Z,12.94
2018-09-29T00:33:23.521Z,12.91
2018-09-29T00:35:50.713Z,12.91
2018-09-29T00:38:17.944Z,12.97
2018-09-29T00:40:45.149Z,12.99
2018-09-29T00:43:12.344Z,12.89
2018-09-29T00:45:39.500Z,12.84
2018-09-29T00:48:06.715Z,12.82
2018-09-29T00:50:33.914Z,12.79
2018-09-29T00:53:01.101Z,12.77
2018-09-29T00:55:28.318Z,12.61
2018-09-29T00:57:55.523Z,12.64
2018-09-29T01:00:22.669Z,12.67
2018-09-29T01:02:49.877Z,12.65
2018-09-29T01:05:17.025Z,12.67
2018-09-29T01:07:44.220Z,12.64
2018-09-29T01:10:11.368Z,12.56
2018-09-29T01:12:38.586Z,12.44
2018-09-29T01:15:05.743Z,12.33
2018-09-29T01:17:32.965Z,12.33
2018-09-29T01:20:00.180Z,12.34
2018-09-29T01:22:27.470Z,12.29
2018-09-29T01:24:54.733Z,12.27
2018-09-29T01:27:21.911Z,12.27
2018-09-29T01:29:49.129Z,12.21
2018-09-29T01:32:16.358Z,12.18
2018-09-29T01:34:43.536Z,12.25
2018-09-29T01:37:10.692Z,12.23
2018-09-29T01:39:38.048Z,12.23
2018-09-29T01:42:05.290Z,12.32
2018-09-29T01:44:32.501Z,12.27
2018-09-29T01:46:59.670Z,12.20
2018-09-29T01:49:26.854Z,12.11
2018-09-29T01:51:54.180Z,12.06
2018-09-29T01:54:21.334Z,12.07
2018-09-29T01:56:48.580Z,12.04
2018-09-29T01:59:15.804Z,12.10
2018-09-29T02:01:42.962Z,12.15
2018-09-29T02:04:10.134Z,12.16
2018-09-29T02:06:38.881Z,12.14
2018-09-29T02:09:06.490Z,12.08
2018-09-29T02:11:33.710Z,11.03
2018-09-29T02:14:00.949Z,11.93
2018-09-29T02:16:28.137Z,11.89
2018-09-29T02:18:55.511Z,11.85
2018-09-29T02:21:22.748Z,11.79
2018-09-29T02:23:49.954Z,11.56
2018-09-29T02:26:17.147Z,11.59
2018-09-29T02:28:44.378Z,11.55
2018-09-29T02:31:11.560Z,11.51
2018-09-29T02:33:38.781Z,11.59
2018-09-29T02:36:05.953Z,11.44
2018-09-29T02:38:33.105Z,11.42
2018-09-29T02:41:00.449Z,11.32
2018-09-29T02:43:27.639Z,11.42
2018-09-29T02:45:54.829Z,11.36
2018-09-29T02:48:22.069Z,11.29
2018-09-29T02:50:49.255Z,11.29
2018-09-29T02:53:16.564Z,11.30
2018-09-29T02:55:43.765Z,11.28
2018-09-29T02:58:10.991Z,11.26
2018-09-29T03:00:38.111Z,11.27
2018-09-29T03:03:05.380Z,11.21
2018-09-29T03:05:32.495Z,11.18
2018-09-29T03:07:59.622Z,11.18
2018-09-29T03:10:26.857Z,11.12
2018-09-29T03:12:54.642Z,11.08
2018-09-29T03:15:21.818Z,10.97
2018-09-29T03:17:48.978Z,10.88
2018-09-29T03:20:16.111Z,10.87
2018-09-29T03:22:43.326Z,10.80
2018-09-29T03:25:10.578Z,10.88
2018-09-29T03:27:37.745Z,10.81
2018-09-29T03:30:05.243Z,10.84
2018-09-29T03:32:32.497Z,10.82
2018-09-29T03:34:59.657Z,10.61
2018-09-29T03:37:26.842Z,10.72
2018-09-29T03:39:53.986Z,10.68
2018-09-29T03:42:21.128Z,10.53
2018-09-29T03:44:48.368Z,10.51
2018-09-29T03:47:15.516Z,10.58
2018-09-29T03:49:42.695Z,10.60
2018-09-29T03:52:09.870Z,10.67
2018-09-29T03:54:37.067Z,10.67
2018-09-29T03:57:04.245Z,10.69
2018-09-29T03:59:31.514Z,10.64
2018-09-29T04:01:58.702Z,10.56
2018-09-29T04:04:25.987Z,10.52
2018-09-29T04:06:53.213Z,10.49
2018-09-29T04:09:20.406Z,10.50
2018-09-29T04:11:47.632Z,10.49
2018-09-29T04:14:14.869Z,10.52
2018-09-29T04:16:42.072Z,10.55
2018-09-29T04:19:09.328Z,10.49
2018-09-29T04:21:43.019Z,10.40
2018-09-29T04:24:10.254Z,10.40
2018-09-29T04:26:37.500Z,10.44
2018-09-29T04:29:04.804Z,10.43
2018-09-29T04:31:32.006Z,10.32
2018-09-29T04:33:59.154Z,10.40
2018-09-29T04:36:26.305Z,10.38
2018-09-29T04:38:53.553Z,10.32
2018-09-29T04:41:20.732Z,10.29
2018-09-29T04:43:47.953Z,10.39
2018-09-29T04:46:15.191Z,10.34
2018-09-29T04:48:43.161Z,10.39
2018-09-29T04:51:10.392Z,10.36
2018-09-29T04:53:37.562Z,10.29
2018-09-29T04:56:04.721Z,10.18
2018-09-29T04:58:31.873Z,10.22
2018-09-29T05:00:59.095Z,10.19
2018-09-29T05:03:26.286Z,10.29
2018-09-29T05:05:53.459Z,10.29
2018-09-29T05:08:20.601Z,10.15
2018-09-29T05:10:47.751Z,10.17
2018-09-29T05:13:14.933Z,10.06
2018-09-29T05:15:42.185Z,9.99
2018-09-29T05:18:09.360Z,9.98
2018-09-29T05:20:36.569Z,9.99
2018-09-29T05:23:03.704Z,9.94
2018-09-29T05:25:30.836Z,9.90
2018-09-29T05:27:58.224Z,9.99
2018-09-29T05:30:25.432Z,9.95
2018-09-29T05:32:52.632Z,9.98
2018-09-29T05:35:19.854Z,9.98
2018-09-29T05:37:47.022Z,9.83
2018-09-29T05:40:14.193Z,9.73
2018-09-29T05:42:41.397Z,9.69
2018-09-29T05:45:08.592Z,9.65
2018-09-29T05:47:35.767Z,9.67
2018-09-29T05:50:02.937Z,9.74
2018-09-29T05:52:30.088Z,9.72
2018-09-29T05:54:57.267Z,9.73
2018-09-29T05:57:24.416Z,9.76
2018-09-29T05:59:51.633Z,9.77
2018-09-29T06:02:18.949Z,9.70
2018-09-29T06:04:46.144Z,9.56
2018-09-29T06:07:13.331Z,9.57
2018-09-29T06:09:40.514Z,9.65
2018-09-29T06:12:07.653Z,9.56
2018-09-29T06:14:34.910Z,9.58
2018-09-29T06:17:02.060Z,9.58
2018-09-29T06:19:29.281Z,9.69
2018-09-29T06:21:56.402Z,9.74
2018-09-29T06:24:23.572Z,9.81
2018-09-29T06:26:50.811Z,9.86
2018-09-29T06:29:18.001Z,9.85
2018-09-29T06:31:45.171Z,9.83
2018-09-29T06:34:12.434Z,9.93
2018-09-29T06:36:39.572Z,9.93
2018-09-29T06:39:07.802Z,9.92
2018-09-29T06:41:35.051Z,9.99
2018-09-29T06:44:02.545Z,9.99
2018-09-29T06:46:29.842Z,10.04
2018-09-29T06:48:57.057Z,10.00
2018-09-29T06:51:24.277Z,10.01
2018-09-29T06:53:51.498Z,10.11
2018-09-29T06:56:18.674Z,10.16
2018-09-29T06:58:45.794Z,10.15
2018-09-29T07:01:13.010Z,10.23
2018-09-29T07:03:40.293Z,10.27
2018-09-29T07:06:07.537Z,10.37
2018-09-29T07:08:34.791Z,10.46
2018-09-29T07:11:02.012Z,10.58
2018-09-29T07:13:29.137Z,10.54
2018-09-29T07:15:56.544Z,10.51
2018-09-29T07:18:23.695Z,10.57
2018-09-29T07:20:50.957Z,10.72
2018-09-29T07:23:18.245Z,10.82
2018-09-29T07:25:45.361Z,10.87
2018-09-29T07:28:12.644Z,10.86
2018-09-29T07:30:40.701Z,10.89
2018-09-29T07:33:08.248Z,10.91
2018-09-29T07:35:35.389Z,10.96
2018-09-29T07:38:02.636Z,11.04
2018-09-29T07:40:29.862Z,11.12
2018-09-29T07:42:57.049Z,11.28
2018-09-29T07:45:24.336Z,11.42
2018-09-29T07:47:51.501Z,11.49
2018-09-29T07:50:18.689Z,11.53
2018-09-29T07:52:45.919Z,11.60
2018-09-29T07:55:13.580Z,11.25
2018-09-29T07:57:40.797Z,11.70
2018-09-29T08:00:08.075Z,11.70
2018-09-29T08:02:35.316Z,11.74
2018-09-29T08:05:02.575Z,11.78
2018-09-29T08:07:29.781Z,11.97
2018-09-29T08:09:57.221Z,12.09
2018-09-29T08:12:24.652Z,12.06
2018-09-29T08:14:51.815Z,12.07
2018-09-29T08:17:19.031Z,12.23
2018-09-29T08:19:46.333Z,12.39
2018-09-29T08:22:13.635Z,12.49
2018-09-29T08:24:41.093Z,12.59
2018-09-29T08:27:08.250Z,12.66
2018-09-29T08:29:35.581Z,12.62
2018-09-29T08:32:02.792Z,12.73
2018-09-29T08:34:30.057Z,12.84
2018-09-29T08:36:57.243Z,12.80
2018-09-29T08:39:24.544Z,12.90
2018-09-29T08:41:52.375Z,12.87
2018-09-29T08:44:19.670Z,13.01
2018-09-29T08:49:14.998Z,13.34
2018-09-29T08:51:42.256Z,13.54
2018-09-29T08:54:09.462Z,13.69
2018-09-29T08:56:36.800Z,13.83
2018-09-29T08:59:04.459Z,13.98
2018-09-29T09:01:31.766Z,13.96
2018-09-29T09:03:59.143Z,14.03
2018-09-29T09:06:26.357Z,14.16
2018-09-29T09:08:53.539Z,14.24
2018-09-29T09:11:21.451Z,14.28
2018-09-29T09:13:48.626Z,14.34
2018-09-29T09:16:16.034Z,14.27
2018-09-29T09:18:43.621Z,14.33
2018-09-29T09:21:10.822Z,14.42
2018-09-29T09:23:37.992Z,14.57
2018-09-29T09:26:05.246Z,14.50
2018-09-29T09:28:32.536Z,14.48
2018-09-29T09:30:59.816Z,14.44
2018-09-29T09:33:27.121Z,14.42
2018-09-29T09:35:54.405Z,14.55
2018-09-29T09:38:21.575Z,14.49
2018-09-29T09:40:48.914Z,14.61
2018-09-29T09:43:16.169Z,14.54
2018-09-29T09:45:43.345Z,14.54
2018-09-29T09:48:10.653Z,14.72
2018-09-29T09:50:37.899Z,14.74
2018-09-29T09:53:05.476Z,14.59
2018-09-29T09:55:32.747Z,14.81
2018-09-29T09:58:00.631Z,14.95
2018-09-29T10:00:34.479Z,15.05
2018-09-29T10:03:07.616Z,15.01
2018-09-29T10:05:34.852Z,15.05
2018-09-29T10:08:02.239Z,15.06
2018-09-29T10:10:29.657Z,15.14
2018-09-29T10:12:57.504Z,15.01
2018-09-29T10:15:24.738Z,15.23
2018-09-29T10:17:52.078Z,15.34
2018-09-29T10:20:19.253Z,15.30
2018-09-29T10:22:46.502Z,15.25
2018-09-29T10:25:13.746Z,15.41
2018-09-29T10:27:41.036Z,15.61
2018-09-29T10:30:08.397Z,15.70
2018-09-29T10:32:35.661Z,15.72
2018-09-29T10:35:02.932Z,15.77
2018-09-29T10:37:30.227Z,15.72
2018-09-29T10:39:59.931Z,15.87
2018-09-29T10:42:27.177Z,15.91
2018-09-29T10:44:54.433Z,15.86
2018-09-29T10:47:21.640Z,15.99
2018-09-29T10:49:48.858Z,16.09
2018-09-29T10:52:16.282Z,16.13
2018-09-29T10:54:44.106Z,16.22
2018-09-29T10:57:11.310Z,16.39
2018-09-29T10:59:38.510Z,16.12
2018-09-29T11:02:05.834Z,16.32
2018-09-29T11:04:33.322Z,16.51
2018-09-29T11:07:00.579Z,16.69
2018-09-29T11:09:27.876Z,16.83
2018-09-29T11:11:55.327Z,16.67
2018-09-29T11:14:22.916Z,16.67
2018-09-29T11:16:50.332Z,16.59
2018-09-29T11:19:17.678Z,16.77
2018-09-29T11:21:45.452Z,16.88
2018-09-29T11:24:13.002Z,17.08
2018-09-29T11:26:40.354Z,17.15
2018-09-29T11:29:07.682Z,17.00
2018-09-29T11:31:34.962Z,17.06
2018-09-29T11:34:02.116Z,17.12
2018-09-29T11:36:29.678Z,17.13
2018-09-29T11:38:56.930Z,17.25
2018-09-29T11:41:24.146Z,17.29
2018-09-29T11:43:51.529Z,17.10
2018-09-29T11:46:18.707Z,17.23
2018-09-29T11:48:45.823Z,17.41
2018-09-29T11:51:13.027Z,17.63
2018-09-29T11:53:40.186Z,17.63
2018-09-29T11:56:07.499Z,17.78
2018-09-29T11:58:34.711Z,17.94
2018-09-29T12:01:01.983Z,17.81
2018-09-29T12:03:29.206Z,17.61
2018-09-29T12:05:56.530Z,17.76
2018-09-29T12:08:23.727Z,17.85
2018-09-29T12:10:51.310Z,17.93
2018-09-29T12:13:18.569Z,18.18
2018-09-29T12:15:45.705Z,18.38
2018-09-29T12:18:12.954Z,18.30
2018-09-29T12:20:40.159Z,18.27
2018-09-29T12:23:08.565Z,18.19
2018-09-29T12:25:35.738Z,18.33
2018-09-29T12:28:02.835Z,18.49
2018-09-29T12:30:30.062Z,18.62
2018-09-29T12:32:57.285Z,18.68
2018-09-29T12:35:24.606Z,18.95
2018-09-29T12:37:51.799Z,19.15
2018-09-29T12:40:19.044Z,19.09
2018-09-29T12:42:46.735Z,19.15
2018-09-29T12:45:15.784Z,19.17
2018-09-29T12:47:43.043Z,19.22
2018-09-29T12:50:10.237Z,18.96
2018-09-29T12:52:37.329Z,19.04
2018-09-29T12:55:04.489Z,19.15
2018-09-29T12:57:31.850Z,19.39
2018-09-29T12:59:59.044Z,19.58
2018-09-29T13:02:26.211Z,19.65
2018-09-29T13:04:53.437Z,19.46
2018-09-29T13:07:20.649Z,19.64
2018-09-29T13:09:47.843Z,19.30
2018-09-29T13:12:15.106Z,19.46
2018-09-29T13:14:42.352Z,19.48
2018-09-29T13:17:09.620Z,19.68
2018-09-29T13:19:36.830Z,19.68
2018-09-29T13:22:04.031Z,19.54
2018-09-29T13:24:31.327Z,19.85
2018-09-29T13:26:58.724Z,20.15
2018-09-29T13:29:26.040Z,19.73
2018-09-29T13:31:54.208Z,20.28
2018-09-29T13:34:21.527Z,20.51
2018-09-29T13:36:48.856Z,20.75
2018-09-29T13:39:16.239Z,20.61
2018-09-29T13:41:43.406Z,20.40
2018-09-29T13:44:10.573Z,20.30
2018-09-29T13:46:37.982Z,20.61
2018-09-29T13:49:05.282Z,20.90
2018-09-29T13:51:32.961Z,21.05
2018-09-29T13:54:01.019Z,20.98
2018-09-29T13:56:28.197Z,21.11
2018-09-29T13:58:55.418Z,20.91
2018-09-29T14:01:22.603Z,21.12
2018-09-29T14:03:49.774Z,21.31
2018-09-29T14:06:17.098Z,21.51
2018-09-29T14:08:44.408Z,21.17
2018-09-29T14:11:12.252Z,21.12
2018-09-29T14:13:39.487Z,21.27
2018-09-29T14:16:06.844Z,21.37
2018-09-29T14:18:34.489Z,21.48
2018-09-29T14:21:02.215Z,21.56
2018-09-29T14:23:29.613Z,21.76
2018-09-29T14:25:57.917Z,21.77
2018-09-29T14:28:25.099Z,21.81
2018-09-29T14:30:53.114Z,21.67
2018-09-29T14:33:20.589Z,21.38
2018-09-29T14:35:47.765Z,21.69
2018-09-29T14:38:15.165Z,22.16
2018-09-29T14:40:42.396Z,22.07
2018-09-29T14:43:09.826Z,21.94
2018-09-29T14:45:37.139Z,21.87
2018-09-29T14:48:04.529Z,21.92
2018-09-29T14:50:31.836Z,21.76
2018-09-29T14:53:00.127Z,21.93
2018-09-29T14:55:27.591Z,21.99
2018-09-29T14:57:55.036Z,22.32
2018-09-29T15:00:22.292Z,22.58
2018-09-29T15:02:50.257Z,22.62
2018-09-29T15:05:17.428Z,22.77
2018-09-29T15:07:44.642Z,22.36
2018-09-29T15:10:12.096Z,21.66
2018-09-29T15:12:39.266Z,21.67
2018-09-29T15:15:06.614Z,21.73
2018-09-29T15:17:33.950Z,21.72
2018-09-29T15:20:01.310Z,21.38
2018-09-29T15:22:28.510Z,21.16
2018-09-29T15:24:55.880Z,20.18
2018-09-29T15:27:23.071Z,19.99
2018-09-29T15:29:50.265Z,19.85
2018-09-29T15:32:17.793Z,19.72
2018-09-29T15:34:45.022Z,19.67
2018-09-29T15:37:12.254Z,19.56
2018-09-29T15:39:40.138Z,19.53
2018-09-29T15:44:43.365Z,19.43
2018-09-29T15:47:10.583Z,19.35
2018-09-29T15:49:37.772Z,19.33
2018-09-29T15:52:04.931Z,18.96
2018-09-29T15:54:32.340Z,18.96
2018-09-29T15:56:59.675Z,18.87
2018-09-29T15:59:26.965Z,18.66
2018-09-29T16:01:54.127Z,18.58
2018-09-29T16:04:21.750Z,18.63
2018-09-29T16:06:49.281Z,18.73
2018-09-29T16:09:16.515Z,18.77
2018-09-29T16:11:43.761Z,18.72
2018-09-29T16:14:11.017Z,18.54
2018-09-29T16:16:38.366Z,18.58
2018-09-29T16:19:05.645Z,18.55
2018-09-29T16:21:33.315Z,18.47
2018-09-29T16:24:00.635Z,18.54
2018-09-29T16:26:27.858Z,18.57
2018-09-29T16:28:55.102Z,18.45
2018-09-29T16:31:22.310Z,18.48
2018-09-29T16:33:49.446Z,18.39
2018-09-29T16:36:16.737Z,18.39
2018-09-29T16:38:43.950Z,18.32
2018-09-29T16:41:11.941Z,18.29
2018-09-29T16:43:39.406Z,18.38
2018-09-29T16:46:06.981Z,18.39
2018-09-29T16:48:34.499Z,18.32
2018-09-29T16:51:01.663Z,18.27
2018-09-29T16:53:28.838Z,18.10
2018-09-29T16:55:56.120Z,18.05
2018-09-29T16:58:23.301Z,17.99
2018-09-29T17:00:50.511Z,17.84
2018-09-29T17:03:17.677Z,17.84
2018-09-29T17:05:44.910Z,17.88
2018-09-29T17:08:12.150Z,17.87
2018-09-29T17:10:39.321Z,17.86
2018-09-29T17:13:06.499Z,17.77
2018-09-29T17:15:33.702Z,17.70
2018-09-29T17:18:01.172Z,17.62
2018-09-29T17:20:28.727Z,17.58
2018-09-29T17:22:56.008Z,17.51
2018-09-29T17:25:23.320Z,17.46
2018-09-29T17:27:50.523Z,17.37
2018-09-29T17:30:17.764Z,17.36
2018-09-29T17:32:45.030Z,17.36
2018-09-29T17:35:15.147Z,17.18
2018-09-29T17:37:42.337Z,16.94
2018-09-29T17:40:10.275Z,16.94
2018-09-29T17:42:37.466Z,16.86
2018-09-29T17:45:04.669Z,16.77
2018-09-29T17:47:31.872Z,16.68
2018-09-29T17:49:59.015Z,16.62
2018-09-29T17:52:26.221Z,16.48
2018-09-29T17:54:53.459Z,16.40
2018-09-29T17:57:20.645Z,16.43
2018-09-29T17:59:47.923Z,16.41
2018-09-29T18:02:15.190Z,16.34
2018-09-29T18:04:42.461Z,16.38
2018-09-29T18:07:09.687Z,16.33
2018-09-29T18:09:36.965Z,16.18
2018-09-29T18:12:04.258Z,16.11
2018-09-29T18:14:31.631Z,16.37
2018-09-29T18:16:58.812Z,17.07
2018-09-29T18:19:26.068Z,17.53
2018-09-29T18:21:53.337Z,17.84
2018-09-29T18:24:20.609Z,18.08
2018-09-29T18:26:47.772Z,18.16
2018-09-29T18:29:15.077Z,18.31
2018-09-29T18:31:42.296Z,18.41
2018-09-29T18:34:09.525Z,18.41
2018-09-29T18:36:36.798Z,18.37
2018-09-29T18:39:06.410Z,18.27
2018-09-29T18:41:33.820Z,18.01
2018-09-29T18:44:01.206Z,17.96
2018-09-29T18:46:28.383Z,18.00
2018-09-29T18:48:55.630Z,18.00
2018-09-29T18:51:22.915Z,18.02
2018-09-29T18:53:50.100Z,18.20
2018-09-29T18:56:17.283Z,18.33
2018-09-29T18:58:44.521Z,18.33
2018-09-29T19:01:11.730Z,18.29
2018-09-29T19:03:39.018Z,18.27
2018-09-29T19:06:06.330Z,18.28
2018-09-29T19:08:33.545Z,18.32
2018-09-29T19:11:00.751Z,18.29
2018-09-29T19:13:27.985Z,18.22
2018-09-29T19:15:55.210Z,18.11
2018-09-29T19:18:22.469Z,17.94
2018-09-29T19:20:49.629Z,17.84
2018-09-29T19:23:16.922Z,17.79
2018-09-29T19:25:44.599Z,17.80
2018-09-29T19:28:11.889Z,17.84
2018-09-29T19:30:39.084Z,17.77
2018-09-29T19:33:06.271Z,17.57
2018-09-29T19:35:33.571Z,17.36
2018-09-29T19:38:04.015Z,17.16
2018-09-29T19:40:31.248Z,16.49
2018-09-29T19:42:58.597Z,16.15
2018-09-29T19:45:26.207Z,16.22
2018-09-29T19:47:53.468Z,16.38
2018-09-29T19:50:20.902Z,16.56
2018-09-29T19:52:48.260Z,16.49
2018-09-29T19:55:15.574Z,16.61
2018-09-29T19:57:42.866Z,16.66
2018-09-29T20:00:10.066Z,16.59
2018-09-29T20:02:37.319Z,16.09
2018-09-29T20:05:04.931Z,15.73
2018-09-29T20:07:33.147Z,15.13
2018-09-29T20:10:00.608Z,14.89
2018-09-29T20:12:27.823Z,15.28
2018-09-29T20:14:55.664Z,15.75
2018-09-29T20:17:22.998Z,16.04
2018-09-29T20:19:50.266Z,16.13
2018-09-29T20:22:18.621Z,15.83
2018-09-29T20:24:45.930Z,16.00
2018-09-29T20:27:13.222Z,15.97
2018-09-29T20:29:40.465Z,15.83
2018-09-29T20:32:07.658Z,15.66
2018-09-29T20:34:35.012Z,15.69
2018-09-29T20:37:02.974Z,16.07
2018-09-29T20:39:31.316Z,16.11
2018-09-29T20:41:58.553Z,15.97
2018-09-29T20:44:25.770Z,15.79
2018-09-29T20:46:52.940Z,15.18
2018-09-29T20:49:20.181Z,14.80
2018-09-29T20:51:47.444Z,14.94
2018-09-29T20:54:14.662Z,15.30
2018-09-29T20:56:41.927Z,15.57
2018-09-29T20:59:09.167Z,15.74
2018-09-29T21:04:12.537Z,15.91
2018-09-29T21:06:39.973Z,15.92
2018-09-29T21:09:07.709Z,15.93
2018-09-29T21:11:35.196Z,15.98
2018-09-29T21:14:02.491Z,15.93
2018-09-29T21:16:29.815Z,15.79
2018-09-29T21:18:56.982Z,15.78
2018-09-29T21:21:24.246Z,15.64
2018-09-29T21:23:51.419Z,15.69
2018-09-29T21:26:18.853Z,15.72
2018-09-29T21:28:46.192Z,15.44
2018-09-29T21:31:13.338Z,14.58
2018-09-29T21:33:40.611Z,14.23
2018-09-29T21:36:07.783Z,14.00
2018-09-29T21:38:35.056Z,14.12
2018-09-29T21:41:02.785Z,14.25
2018-09-29T21:43:30.110Z,14.18
2018-09-29T21:45:57.319Z,14.34
2018-09-29T21:48:24.560Z,14.28
2018-09-29T21:50:51.810Z,14.08
2018-09-29T21:53:19.354Z,13.06
2018-09-29T21:55:46.602Z,12.38
2018-09-29T21:58:14.071Z,11.78
2018-09-29T22:00:42.716Z,11.26
2018-09-29T22:03:10.919Z,11.03
2018-09-29T22:05:38.312Z,11.10
2018-09-29T22:08:05.885Z,11.15
2018-09-29T22:10:33.234Z,11.18
2018-09-29T22:13:00.442Z,11.06
2018-09-29T22:15:27.650Z,10.86
2018-09-29T22:17:54.775Z,10.70
2018-09-29T22:20:21.991Z,10.59
2018-09-29T22:22:49.180Z,10.36
2018-09-29T22:25:16.326Z,10.11
2018-09-29T22:27:44.602Z,9.94
2018-09-29T22:30:11.766Z,10.04
2018-09-29T22:32:38.979Z,9.95
2018-09-29T22:35:06.192Z,9.99
2018-09-29T22:37:33.501Z,9.99
2018-09-29T22:40:00.847Z,9.94
2018-09-29T22:42:28.014Z,9.84
2018-09-29T22:44:55.211Z,9.85
2018-09-29T22:47:22.469Z,9.94
2018-09-29T22:49:49.633Z,9.79
2018-09-29T22:52:16.986Z,9.85
2018-09-29T22:54:44.379Z,9.91
2018-09-29T22:57:11.733Z,9.76
2018-09-29T22:59:39.055Z,9.56
2018-09-29T23:02:06.750Z,9.50
2018-09-29T23:04:33.943Z,9.53
2018-09-29T23:07:01.260Z,9.49
2018-09-29T23:09:28.466Z,9.46
2018-09-29T23:11:55.662Z,9.50
2018-09-29T23:14:22.958Z,9.48
2018-09-29T23:16:50.124Z,9.47
2018-09-29T23:19:17.320Z,9.50
2018-09-29T23:21:44.551Z,9.55
2018-09-29T23:24:11.761Z,9.49
2018-09-29T23:26:38.923Z,8.94
2018-09-29T23:29:06.224Z,9.25
2018-09-29T23:31:33.431Z,9.20
2018-09-29T23:34:00.626Z,9.24
2018-09-29T23:36:27.834Z,9.28
2018-09-29T23:38:55.085Z,9.48
2018-09-29T23:41:22.269Z,9.43
2018-09-29T23:43:49.511Z,9.26
2018-09-29T23:46:16.717Z,9.11
2018-09-29T23:48:43.933Z,8.99
2018-09-29T23:51:11.121Z,8.89
2018-09-29T23:53:38.322Z,8.77
2018-09-29T23:56:05.574Z,8.75
2018-09-29T23:58:32.778Z,8.85
